Time;durP1;ratioP1;P1;durP2;ratioP2;P2;SDS_P1;SDS_P2;PMS_P1;PMS_P2;Temp;Humidity;BMP_temperature;BMP_pressure;BME280_temperature;BME280_humidity;BME280_pressure;Samples;Min_cycle;Max_cycle;Signal;HPM_P1;HPM_P2
2023/08/09 00:01:55;;;;;;;3.70;2.30;;;;;;;;;;5035813;28;20343;-45
2023/08/09 00:04:22;;;;;;;3.85;2.38;;;;;;;;;;5035950;28;20273;-45
2023/08/09 00:06:49;;;;;;;6.10;2.22;;;;;;;;;;5035421;28;20232;-45
2023/08/09 00:09:16;;;;;;;5.43;2.22;;;;;;;;;;5035733;28;20262;-47
2023/08/09 00:11:43;;;;;;;7.38;2.60;;;;;;;;;;5035329;28;20215;-45
2023/08/09 00:14:10;;;;;;;5.78;2.55;;;;;;;;;;5035860;28;20200;-45
2023/08/09 00:16:38;;;;;;;3.17;2.28;;;;;;;;;;5035613;28;20208;-45
2023/08/09 00:19:05;;;;;;;3.83;1.92;;;;;;;;;;5035151;28;20232;-45
2023/08/09 00:21:32;;;;;;;3.78;2.13;;;;;;;;;;5035446;28;20211;-45
2023/08/09 00:24:00;;;;;;;3.55;2.08;;;;;;;;;;5035322;28;20207;-45
2023/08/09 00:26:27;;;;;;;3.63;1.80;;;;;;;;;;5035039;28;20284;-45
2023/08/09 00:28:54;;;;;;;3.05;1.90;;;;;;;;;;5035648;28;20208;-45
2023/08/09 00:31:21;;;;;;;4.85;2.10;;;;;;;;;;5035393;28;20197;-45
2023/08/09 00:33:48;;;;;;;4.78;2.25;;;;;;;;;;5034093;28;20228;-45
2023/08/09 00:36:16;;;;;;;3.05;1.90;;;;;;;;;;5035300;28;20204;-45
2023/08/09 00:38:43;;;;;;;4.28;2.20;;;;;;;;;;5034716;28;20282;-47
2023/08/09 00:41:10;;;;;;;2.75;1.80;;;;;;;;;;5033794;28;20201;-45
2023/08/09 00:43:37;;;;;;;5.47;2.08;;;;;;;;;;5035126;28;20259;-47
2023/08/09 00:46:05;;;;;;;3.70;2.22;;;;;;;;;;5034968;28;20570;-45
2023/08/09 00:48:32;;;;;;;2.85;1.90;;;;;;;;;;5034836;28;20213;-45
2023/08/09 00:51:00;;;;;;;3.38;1.92;;;;;;;;;;5034879;28;20547;-45
2023/08/09 00:53:27;;;;;;;2.78;1.98;;;;;;;;;;5034759;28;20208;-46
2023/08/09 00:55:56;;;;;;;7.10;2.42;;;;;;;;;;5034904;28;20200;-45
2023/08/09 00:58:23;;;;;;;2.42;1.70;;;;;;;;;;5034540;28;20225;-46
2023/08/09 01:00:50;;;;;;;5.53;2.20;;;;;;;;;;5034692;28;20692;-45
2023/08/09 01:03:18;;;;;;;3.17;1.90;;;;;;;;;;5034941;28;20216;-45
2023/08/09 01:05:52;;;;;;;3.42;1.90;;;;;;;;;;5033180;28;20236;-46
2023/08/09 01:08:43;;;;;;;3.67;1.92;;;;;;;;;;5033433;28;20204;-45
2023/08/09 01:11:17;;;;;;;5.43;1.95;;;;;;;;;;5032806;28;20251;-45
2023/08/09 01:13:45;;;;;;;5.85;1.95;;;;;;;;;;5034830;28;20258;-45
2023/08/09 01:16:13;;;;;;;4.25;1.90;;;;;;;;;;5033090;28;20223;-45
2023/08/09 01:18:42;;;;;;;4.28;1.70;;;;;;;;;;5016882;28;20278;-45
2023/08/09 01:21:10;;;;;;;5.45;2.15;;;;;;;;;;5032950;28;20208;-45
2023/08/09 01:23:38;;;;;;;3.15;2.13;;;;;;;;;;5017178;28;20448;-45
2023/08/09 01:26:05;;;;;;;3.67;2.13;;;;;;;;;;5033115;28;20236;-46
2023/08/09 01:28:32;;;;;;;3.30;1.77;;;;;;;;;;5032548;28;20205;-45
2023/08/09 01:31:00;;;;;;;2.50;1.73;;;;;;;;;;5034371;28;20204;-45
2023/08/09 01:33:27;;;;;;;2.60;1.92;;;;;;;;;;5034104;28;20292;-45
2023/08/09 01:36:02;;;;;;;2.92;1.90;;;;;;;;;;5034225;28;20207;-45
2023/08/09 01:38:35;;;;;;;3.38;1.85;;;;;;;;;;5016849;28;20220;-45
2023/08/09 01:41:04;;;;;;;2.53;1.77;;;;;;;;;;5032573;28;20204;-46
2023/08/09 01:43:31;;;;;;;3.53;1.80;;;;;;;;;;5032277;28;20197;-45
2023/08/09 01:45:59;;;;;;;3.45;1.55;;;;;;;;;;5032721;28;20201;-45
2023/08/09 01:48:26;;;;;;;4.55;2.22;;;;;;;;;;5032510;28;20736;-45
2023/08/09 01:50:54;;;;;;;3.17;1.77;;;;;;;;;;5032651;28;20200;-45
2023/08/09 01:53:21;;;;;;;4.38;2.28;;;;;;;;;;5033894;28;20323;-46
2023/08/09 01:55:48;;;;;;;3.10;2.13;;;;;;;;;;5033549;28;20208;-46
2023/08/09 01:58:15;;;;;;;3.88;2.20;;;;;;;;;;5032370;28;20201;-45
2023/08/09 02:00:43;;;;;;;5.38;1.95;;;;;;;;;;5032417;28;20215;-45
2023/08/09 02:03:11;;;;;;;3.80;2.20;;;;;;;;;;5032580;28;20208;-45
2023/08/09 02:05:38;;;;;;;2.80;1.95;;;;;;;;;;5033438;28;20243;-47
2023/08/09 02:08:06;;;;;;;5.93;2.25;;;;;;;;;;5032306;28;20208;-45
2023/08/09 02:10:33;;;;;;;2.85;2.20;;;;;;;;;;5033630;28;20280;-45
2023/08/09 02:13:00;;;;;;;3.47;2.40;;;;;;;;;;5033713;28;20570;-45
2023/08/09 02:15:28;;;;;;;2.83;1.85;;;;;;;;;;5033366;28;20200;-46
2023/08/09 02:17:58;;;;;;;3.60;2.28;;;;;;;;;;5033421;28;20232;-45
2023/08/09 02:20:28;;;;;;;2.90;2.20;;;;;;;;;;5065484;28;20571;-45
2023/08/09 02:22:55;;;;;;;4.60;2.05;;;;;;;;;;5033207;28;20207;-45
2023/08/09 02:25:23;;;;;;;5.38;2.20;;;;;;;;;;5032308;28;20204;-45
2023/08/09 02:27:50;;;;;;;4.68;2.40;;;;;;;;;;5031927;28;20211;-46
2023/08/09 02:30:17;;;;;;;5.03;2.10;;;;;;;;;;5033182;28;20585;-46
2023/08/09 02:32:44;;;;;;;3.45;2.03;;;;;;;;;;5033218;28;20219;-45
2023/08/09 02:35:12;;;;;;;3.05;1.95;;;;;;;;;;5032820;28;20609;-45
2023/08/09 02:37:39;;;;;;;5.35;2.60;;;;;;;;;;5032992;28;20613;-45
2023/08/09 02:40:06;;;;;;;2.20;1.90;;;;;;;;;;5032634;28;20236;-45
2023/08/09 02:42:34;;;;;;;3.70;2.35;;;;;;;;;;5033009;28;20216;-47
2023/08/09 02:45:01;;;;;;;6.45;2.30;;;;;;;;;;5033047;28;20258;-45
2023/08/09 02:47:28;;;;;;;3.42;2.10;;;;;;;;;;5032697;28;20201;-45
2023/08/09 02:49:55;;;;;;;2.95;1.88;;;;;;;;;;5031537;28;20208;-45
2023/08/09 02:52:22;;;;;;;3.58;2.03;;;;;;;;;;5032939;28;20201;-45
2023/08/09 02:54:50;;;;;;;3.45;2.05;;;;;;;;;;5031607;28;20204;-46
2023/08/09 02:57:17;;;;;;;3.90;2.40;;;;;;;;;;5032840;28;20232;-45
2023/08/09 02:59:46;;;;;;;4.57;2.22;;;;;;;;;;5031372;28;20220;-45
2023/08/09 03:02:15;;;;;;;2.83;2.20;;;;;;;;;;5031888;28;20185;-45
2023/08/09 03:04:42;;;;;;;3.20;1.92;;;;;;;;;;5031198;28;20207;-45
2023/08/09 03:07:10;;;;;;;5.10;2.22;;;;;;;;;;5031171;28;20232;-46
2023/08/09 03:09:40;;;;;;;3.28;2.08;;;;;;;;;;5032530;28;20664;-45
2023/08/09 03:12:08;;;;;;;4.82;2.15;;;;;;;;;;5032616;28;20205;-45
2023/08/09 03:14:35;;;;;;;3.72;2.17;;;;;;;;;;5032575;28;20196;-46
2023/08/09 03:17:02;;;;;;;3.55;2.05;;;;;;;;;;5032808;28;20232;-46
2023/08/09 03:19:30;;;;;;;3.53;2.20;;;;;;;;;;5031529;28;20271;-45
2023/08/09 03:21:57;;;;;;;4.63;2.72;;;;;;;;;;5032718;28;20225;-45
2023/08/09 03:24:25;;;;;;;3.67;2.33;;;;;;;;;;5064496;28;20247;-47
2023/08/09 03:26:52;;;;;;;4.13;2.25;;;;;;;;;;5031239;28;20205;-45
2023/08/09 03:29:20;;;;;;;3.63;2.30;;;;;;;;;;5031510;28;20279;-45
2023/08/09 03:31:47;;;;;;;5.72;2.63;;;;;;;;;;5032354;28;20688;-45
2023/08/09 03:34:17;;;;;;;4.10;2.10;;;;;;;;;;5066420;28;20209;-45
2023/08/09 03:36:44;;;;;;;3.70;2.20;;;;;;;;;;5068297;28;20205;-45
2023/08/09 03:39:12;;;;;;;5.32;2.05;;;;;;;;;;5036210;28;20228;-45
2023/08/09 03:41:39;;;;;;;4.85;2.38;;;;;;;;;;5036368;28;20219;-45
2023/08/09 03:44:08;;;;;;;6.55;2.30;;;;;;;;;;5034992;28;20695;-45
2023/08/09 03:46:36;;;;;;;5.65;2.10;;;;;;;;;;5034414;28;20661;-45
2023/08/09 03:49:04;;;;;;;3.63;2.15;;;;;;;;;;5034428;28;20676;-45
2023/08/09 03:51:36;;;;;;;4.60;1.90;;;;;;;;;;5035185;28;20193;-45
2023/08/09 03:54:03;;;;;;;4.05;1.92;;;;;;;;;;5034800;28;20200;-45
2023/08/09 03:56:31;;;;;;;2.85;1.90;;;;;;;;;;5036174;28;20283;-46
2023/08/09 03:58:58;;;;;;;3.65;2.03;;;;;;;;;;5034673;28;20255;-46
2023/08/09 04:01:25;;;;;;;4.05;2.00;;;;;;;;;;5035470;28;20212;-47
2023/08/09 04:03:54;;;;;;;6.60;2.28;;;;;;;;;;5067555;28;20733;-45
2023/08/09 04:06:21;;;;;;;4.63;2.10;;;;;;;;;;5035760;28;20286;-45
2023/08/09 04:08:49;;;;;;;4.32;1.65;;;;;;;;;;5035639;28;20212;-47
2023/08/09 04:11:16;;;;;;;3.22;2.22;;;;;;;;;;5034324;28;20197;-44
2023/08/09 04:13:43;;;;;;;3.08;2.17;;;;;;;;;;5035500;28;20204;-45
2023/08/09 04:16:10;;;;;;;5.13;2.03;;;;;;;;;;5034424;28;20236;-45
2023/08/09 04:18:38;;;;;;;5.30;2.30;;;;;;;;;;5018175;28;20673;-45
2023/08/09 04:21:06;;;;;;;4.40;1.95;;;;;;;;;;5034185;28;20701;-45
2023/08/09 04:23:34;;;;;;;4.63;2.00;;;;;;;;;;5034116;28;20212;-45
2023/08/09 04:26:02;;;;;;;3.40;1.90;;;;;;;;;;5035152;28;20197;-45
2023/08/09 04:28:30;;;;;;;4.75;1.90;;;;;;;;;;5035221;28;20771;-45
2023/08/09 04:30:57;;;;;;;3.63;1.80;;;;;;;;;;5035402;28;20727;-45
2023/08/09 04:33:24;;;;;;;4.90;2.10;;;;;;;;;;5035480;28;20209;-45
2023/08/09 04:35:51;;;;;;;3.42;2.20;;;;;;;;;;5035015;28;20205;-45
2023/08/09 04:38:19;;;;;;;3.03;1.80;;;;;;;;;;5033818;28;20555;-45
2023/08/09 04:40:47;;;;;;;2.05;1.67;;;;;;;;;;5034815;28;20221;-45
2023/08/09 04:43:14;;;;;;;3.50;1.52;;;;;;;;;;5035094;28;20209;-46
2023/08/09 04:45:41;;;;;;;3.05;1.80;;;;;;;;;;5033897;28;20553;-46
2023/08/09 04:48:16;;;;;;;9.27;1.77;;;;;;;;;;5034895;28;20583;-48
2023/08/09 04:50:43;;;;;;;2.85;1.67;;;;;;;;;;5034967;28;20208;-45
2023/08/09 04:53:10;;;;;;;4.32;2.00;;;;;;;;;;5034819;28;20204;-46
2023/08/09 04:55:37;;;;;;;3.88;1.77;;;;;;;;;;5035047;28;20228;-45
2023/08/09 04:58:04;;;;;;;3.28;1.75;;;;;;;;;;5034736;28;20209;-45
2023/08/09 05:00:32;;;;;;;3.45;1.88;;;;;;;;;;5034623;28;20685;-45
2023/08/09 05:02:59;;;;;;;2.72;1.73;;;;;;;;;;5034705;28;20204;-46
2023/08/09 05:05:27;;;;;;;4.18;2.08;;;;;;;;;;5034266;28;20232;-45
2023/08/09 05:07:55;;;;;;;7.00;1.90;;;;;;;;;;5034911;28;20205;-46
2023/08/09 05:10:22;;;;;;;2.80;1.98;;;;;;;;;;5034574;28;20658;-45
2023/08/09 05:12:50;;;;;;;6.53;2.35;;;;;;;;;;5034641;28;20208;-45
2023/08/09 05:15:17;;;;;;;2.17;1.67;;;;;;;;;;5034585;28;20204;-45
2023/08/09 05:17:44;;;;;;;3.70;1.80;;;;;;;;;;5034393;28;20205;-46
2023/08/09 05:20:11;;;;;;;5.18;1.85;;;;;;;;;;5034500;28;20233;-46
2023/08/09 05:22:39;;;;;;;2.85;1.85;;;;;;;;;;5034543;28;20213;-45
2023/08/09 05:25:06;;;;;;;2.88;1.77;;;;;;;;;;5033967;28;20205;-45
2023/08/09 05:27:34;;;;;;;3.40;2.20;;;;;;;;;;5034384;28;20216;-45
2023/08/09 05:30:01;;;;;;;3.97;2.10;;;;;;;;;;5034253;28;20208;-45
2023/08/09 05:32:28;;;;;;;3.03;1.85;;;;;;;;;;5032811;28;20556;-45
2023/08/09 05:34:55;;;;;;;3.90;2.38;;;;;;;;;;5033876;28;20215;-45
2023/08/09 05:37:23;;;;;;;3.47;2.15;;;;;;;;;;5031500;28;20197;-45
2023/08/09 05:39:50;;;;;;;2.65;2.00;;;;;;;;;;5033364;28;20238;-45
2023/08/09 05:42:17;;;;;;;2.42;1.70;;;;;;;;;;5033451;28;20716;-45
2023/08/09 05:44:44;;;;;;;3.95;2.30;;;;;;;;;;5033186;28;20731;-47
2023/08/09 05:47:11;;;;;;;3.72;2.10;;;;;;;;;;5033008;28;20609;-46
2023/08/09 05:49:39;;;;;;;3.58;1.98;;;;;;;;;;5033470;28;20207;-45
2023/08/09 05:52:06;;;;;;;5.60;2.40;;;;;;;;;;5033166;28;20205;-47
2023/08/09 05:54:33;;;;;;;5.15;2.00;;;;;;;;;;5032996;28;20200;-45
2023/08/09 05:57:01;;;;;;;3.33;1.77;;;;;;;;;;5032267;28;20712;-44
2023/08/09 05:59:28;;;;;;;3.33;2.17;;;;;;;;;;5032936;28;20200;-45
2023/08/09 06:01:56;;;;;;;2.60;1.52;;;;;;;;;;5029416;28;20713;-46
2023/08/09 06:04:24;;;;;;;4.57;1.92;;;;;;;;;;5030654;28;20559;-45
2023/08/09 06:06:52;;;;;;;2.83;1.63;;;;;;;;;;5031858;28;20243;-46
2023/08/09 06:09:19;;;;;;;2.97;1.70;;;;;;;;;;5032421;28;20658;-46
2023/08/09 06:11:46;;;;;;;3.05;1.60;;;;;;;;;;5025017;28;20732;-45
2023/08/09 06:14:13;;;;;;;2.45;1.60;;;;;;;;;;5032663;28;20248;-45
2023/08/09 06:16:43;;;;;;;2.28;1.67;;;;;;;;;;5032377;28;20701;-45
2023/08/09 06:19:11;;;;;;;4.10;2.22;;;;;;;;;;5032374;28;20721;-44
2023/08/09 06:21:39;;;;;;;2.92;1.70;;;;;;;;;;5032255;28;20236;-44
2023/08/09 06:24:06;;;;;;;3.70;1.85;;;;;;;;;;5032136;28;20619;-44
2023/08/09 06:26:34;;;;;;;3.10;1.80;;;;;;;;;;5031259;28;20224;-45
2023/08/09 06:29:03;;;;;;;5.43;1.88;;;;;;;;;;5032798;28;20312;-45
2023/08/09 06:31:31;;;;;;;3.60;1.80;;;;;;;;;;5032471;28;20251;-45
2023/08/09 06:33:58;;;;;;;2.50;1.50;;;;;;;;;;5032694;28;20251;-45
2023/08/09 06:36:26;;;;;;;3.40;1.70;;;;;;;;;;5032276;28;20557;-45
2023/08/09 06:38:53;;;;;;;3.15;1.67;;;;;;;;;;5032200;28;20800;-45
2023/08/09 06:41:20;;;;;;;2.33;1.58;;;;;;;;;;5031721;28;20244;-44
2023/08/09 06:43:47;;;;;;;2.42;1.60;;;;;;;;;;5031301;28;20231;-45
2023/08/09 06:46:15;;;;;;;4.72;2.00;;;;;;;;;;5032558;28;20220;-44
2023/08/09 06:48:42;;;;;;;3.22;1.67;;;;;;;;;;5032312;28;20233;-44
2023/08/09 06:51:10;;;;;;;2.67;1.40;;;;;;;;;;5031717;28;20224;-44
2023/08/09 06:53:37;;;;;;;3.20;1.55;;;;;;;;;;5031994;28;20589;-44
2023/08/09 06:56:05;;;;;;;4.50;1.65;;;;;;;;;;5032194;28;20233;-45
2023/08/09 06:58:32;;;;;;;2.33;1.20;;;;;;;;;;5031868;28;20246;-43
2023/08/09 07:01:02;;;;;;;1.98;1.30;;;;;;;;;;5032541;28;20240;-43
2023/08/09 07:03:29;;;;;;;2.00;1.45;;;;;;;;;;5032273;28;20228;-44
2023/08/09 07:05:56;;;;;;;2.85;1.40;;;;;;;;;;5032013;28;20237;-44
2023/08/09 07:08:23;;;;;;;2.60;1.38;;;;;;;;;;5031863;28;20337;-45
2023/08/09 07:10:51;;;;;;;3.85;1.63;;;;;;;;;;5035515;28;20228;-45
2023/08/09 07:13:18;;;;;;;3.13;1.95;;;;;;;;;;5035414;28;20701;-43
2023/08/09 07:15:46;;;;;;;3.00;1.83;;;;;;;;;;5036251;28;20279;-45
2023/08/09 07:18:13;;;;;;;2.35;1.45;;;;;;;;;;5035855;28;20282;-43
2023/08/09 07:20:40;;;;;;;2.72;1.83;;;;;;;;;;5035686;28;20713;-43
2023/08/09 07:23:07;;;;;;;1.90;1.25;;;;;;;;;;5035123;28;20248;-45
2023/08/09 07:25:35;;;;;;;4.53;1.63;;;;;;;;;;5036665;28;20204;-44
2023/08/09 07:28:02;;;;;;;1.83;1.35;;;;;;;;;;5035679;28;20201;-44
2023/08/09 07:30:29;;;;;;;2.28;1.30;;;;;;;;;;5021294;28;20237;-44
2023/08/09 07:32:56;;;;;;;3.22;1.55;;;;;;;;;;5031778;28;20223;-46
2023/08/09 07:35:24;;;;;;;1.92;1.27;;;;;;;;;;5034261;28;20701;-45
2023/08/09 07:37:51;;;;;;;3.25;1.40;;;;;;;;;;5033730;28;20280;-45
2023/08/09 07:40:18;;;;;;;2.25;1.52;;;;;;;;;;5024406;28;20290;-46
2023/08/09 07:42:45;;;;;;;2.00;1.35;;;;;;;;;;5034548;28;20244;-44
2023/08/09 07:45:13;;;;;;;2.95;1.40;;;;;;;;;;5031347;28;20231;-45
2023/08/09 07:47:41;;;;;;;1.95;1.27;;;;;;;;;;5034941;28;20221;-44
2023/08/09 07:50:10;;;;;;;1.92;1.30;;;;;;;;;;5035004;28;20236;-44
2023/08/09 07:52:37;;;;;;;2.00;1.45;;;;;;;;;;5035521;28;20271;-43
2023/08/09 07:55:05;;;;;;;4.25;1.45;;;;;;;;;;5035293;28;20263;-43
2023/08/09 07:57:33;;;;;;;2.55;1.70;;;;;;;;;;5035384;28;20232;-44
2023/08/09 08:00:05;;;;;;;2.72;1.63;;;;;;;;;;5033919;28;20693;-43
2023/08/09 08:02:47;;;;;;;2.17;1.67;;;;;;;;;;5036091;28;20208;-44
2023/08/09 08:05:15;;;;;;;1.65;1.27;;;;;;;;;;5035325;28;20276;-44
2023/08/09 08:07:43;;;;;;;3.35;1.77;;;;;;;;;;5033187;28;20606;-43
2023/08/09 08:10:14;;;;;;;3.97;1.60;;;;;;;;;;5035385;28;20204;-44
2023/08/09 08:12:43;;;;;;;2.35;1.30;;;;;;;;;;5035702;28;20216;-44
2023/08/09 08:15:12;;;;;;;2.30;1.52;;;;;;;;;;5035685;28;20288;-44
2023/08/09 08:17:40;;;;;;;2.95;1.58;;;;;;;;;;5035754;28;20209;-44
2023/08/09 08:20:15;;;;;;;2.05;1.48;;;;;;;;;;5035663;28;20259;-44
2023/08/09 08:22:43;;;;;;;4.80;1.52;;;;;;;;;;5034503;28;20207;-44
2023/08/09 08:25:11;;;;;;;4.28;1.63;;;;;;;;;;5035746;28;20205;-43
2023/08/09 08:27:40;;;;;;;2.88;1.50;;;;;;;;;;5035677;28;20235;-44
2023/08/09 08:30:08;;;;;;;1.83;1.40;;;;;;;;;;5034320;28;20193;-44
2023/08/09 08:32:36;;;;;;;3.70;1.42;;;;;;;;;;5034726;28;20197;-45
2023/08/09 08:35:04;;;;;;;2.83;1.55;;;;;;;;;;5032333;28;20193;-44
2023/08/09 08:37:31;;;;;;;4.80;1.20;;;;;;;;;;5034632;28;20270;-44
2023/08/09 08:40:00;;;;;;;1.90;1.38;;;;;;;;;;5034838;28;20204;-44
2023/08/09 08:42:27;;;;;;;6.32;1.50;;;;;;;;;;5034073;28;20296;-44
2023/08/09 08:44:55;;;;;;;1.70;1.27;;;;;;;;;;5027196;28;20654;-43
2023/08/09 08:47:24;;;;;;;1.85;1.10;;;;;;;;;;5034992;28;20235;-44
2023/08/09 08:49:54;;;;;;;2.08;1.15;;;;;;;;;;5033537;28;20267;-44
2023/08/09 08:52:24;;;;;;;2.05;1.20;;;;;;;;;;5033731;28;20196;-44
2023/08/09 08:54:51;;;;;;;5.00;1.50;;;;;;;;;;5031171;28;20652;-45
2023/08/09 08:57:19;;;;;;;4.93;1.30;;;;;;;;;;5028834;28;20228;-46
2023/08/09 08:59:47;;;;;;;1.30;1.08;;;;;;;;;;5034650;28;20215;-44
2023/08/09 09:02:15;;;;;;;1.55;1.25;;;;;;;;;;5034012;28;20282;-47
2023/08/09 09:04:42;;;;;;;2.20;1.20;;;;;;;;;;5014408;28;20662;-46
2023/08/09 09:07:10;;;;;;;1.85;1.20;;;;;;;;;;5034550;28;20235;-46
2023/08/09 09:09:59;;;;;;;1.80;1.20;;;;;;;;;;5034020;28;20207;-46
2023/08/09 09:12:27;;;;;;;3.25;1.20;;;;;;;;;;5034269;28;20189;-46
2023/08/09 09:14:54;;;;;;;1.90;1.17;;;;;;;;;;5034137;28;20263;-46
2023/08/09 09:17:21;;;;;;;3.67;1.75;;;;;;;;;;5034213;28;20680;-46
2023/08/09 09:19:50;;;;;;;1.83;1.02;;;;;;;;;;5034445;28;20201;-46
2023/08/09 09:22:31;;;;;;;5.03;1.00;;;;;;;;;;5014220;28;20694;-46
2023/08/09 09:24:58;;;;;;;2.30;1.15;;;;;;;;;;5015054;28;20231;-45
2023/08/09 09:27:31;;;;;;;1.88;0.80;;;;;;;;;;5034144;28;20227;-46
2023/08/09 09:30:04;;;;;;;3.65;1.38;;;;;;;;;;5033706;28;20212;-46
2023/08/09 09:32:38;;;;;;;1.75;1.05;;;;;;;;;;5031788;28;20707;-45
2023/08/09 09:35:06;;;;;;;2.30;1.15;;;;;;;;;;5030009;28;20201;-46
2023/08/09 09:37:35;;;;;;;1.70;1.08;;;;;;;;;;5033403;28;20204;-46
2023/08/09 09:40:02;;;;;;;2.42;1.10;;;;;;;;;;5033117;28;20200;-46
2023/08/09 09:42:34;;;;;;;2.00;1.10;;;;;;;;;;5033388;28;20239;-46
2023/08/09 09:45:10;;;;;;;4.05;0.90;;;;;;;;;;5032233;28;20228;-46
2023/08/09 09:47:40;;;;;;;7.50;2.75;;;;;;;;;;5022743;28;20216;-43
2023/08/09 09:50:10;;;;;;;1.75;1.00;;;;;;;;;;5034135;28;20188;-44
2023/08/09 09:52:39;;;;;;;2.38;1.00;;;;;;;;;;5033547;28;20201;-44
2023/08/09 09:55:07;;;;;;;3.00;1.00;;;;;;;;;;5031900;28;20208;-44
2023/08/09 09:57:34;;;;;;;1.55;1.20;;;;;;;;;;5033311;28;20270;-43
2023/08/09 10:00:08;;;;;;;1.67;0.90;;;;;;;;;;5033171;28;20205;-43
2023/08/09 10:02:48;;;;;;;1.23;0.93;;;;;;;;;;5033462;28;20235;-44
2023/08/09 10:05:21;;;;;;;1.55;0.80;;;;;;;;;;5033456;28;20200;-45
2023/08/09 10:07:50;;;;;;;4.32;1.10;;;;;;;;;;5033600;28;20189;-44
2023/08/09 10:10:20;;;;;;;1.73;1.35;;;;;;;;;;5033717;28;20189;-44
2023/08/09 10:12:51;;;;;;;0.95;0.70;;;;;;;;;;5033901;28;20208;-45
2023/08/09 10:15:35;;;;;;;2.70;0.90;;;;;;;;;;5032044;28;20634;-44
2023/08/09 10:18:10;;;;;;;1.20;1.00;;;;;;;;;;5016985;28;20224;-45
2023/08/09 10:20:50;;;;;;;1.48;0.80;;;;;;;;;;5029542;28;20279;-45
2023/08/09 10:23:22;;;;;;;1.90;1.13;;;;;;;;;;5032526;28;20262;-46
2023/08/09 10:25:50;;;;;;;1.33;0.88;;;;;;;;;;5033579;28;20257;-45
2023/08/09 10:28:19;;;;;;;2.38;1.00;;;;;;;;;;5030945;28;20201;-45
2023/08/09 10:30:51;;;;;;;1.42;0.98;;;;;;;;;;5033204;28;20200;-45
2023/08/09 10:33:19;;;;;;;1.70;0.90;;;;;;;;;;5033540;28;20665;-44
2023/08/09 10:35:54;;;;;;;0.90;0.70;;;;;;;;;;5030994;28;20662;-43
2023/08/09 10:38:41;;;;;;;1.50;0.80;;;;;;;;;;5033370;28;20211;-44
2023/08/09 10:41:14;;;;;;;1.85;0.93;;;;;;;;;;5032943;28;20228;-45
2023/08/09 10:43:42;;;;;;;1.83;0.80;;;;;;;;;;5033751;28;20185;-46
2023/08/09 10:46:24;;;;;;;3.10;1.73;;;;;;;;;;5036844;28;20209;-46
2023/08/09 10:48:53;;;;;;;2.45;1.00;;;;;;;;;;5034548;28;20185;-44
2023/08/09 10:51:22;;;;;;;1.30;0.77;;;;;;;;;;5034418;28;20205;-45
2023/08/09 10:53:57;;;;;;;1.00;0.70;;;;;;;;;;5036035;28;20192;-44
2023/08/09 10:56:30;;;;;;;1.35;1.00;;;;;;;;;;5028021;28;20212;-44
2023/08/09 10:59:21;;;;;;;1.50;1.00;;;;;;;;;;5033860;28;20220;-46
2023/08/09 11:01:48;;;;;;;3.35;0.73;;;;;;;;;;5022168;28;20240;-44
2023/08/09 11:04:19;;;;;;;1.95;0.90;;;;;;;;;;5035102;28;20212;-44
2023/08/09 11:06:49;;;;;;;2.20;0.93;;;;;;;;;;5031515;28;20228;-46
2023/08/09 11:09:18;;;;;;;1.55;0.60;;;;;;;;;;5035283;28;20216;-47
2023/08/09 11:11:47;;;;;;;1.10;0.77;;;;;;;;;;5034969;28;20296;-46
2023/08/09 11:14:15;;;;;;;2.22;0.90;;;;;;;;;;5035846;28;20701;-46
2023/08/09 11:16:44;;;;;;;1.65;0.98;;;;;;;;;;5035144;28;20235;-46
2023/08/09 11:19:16;;;;;;;1.27;0.82;;;;;;;;;;5033939;28;20521;-46
2023/08/09 11:22:00;;;;;;;2.47;0.70;;;;;;;;;;5035154;28;20236;-47
2023/08/09 11:24:29;;;;;;;1.63;0.80;;;;;;;;;;5035313;28;20220;-46
2023/08/09 11:26:58;;;;;;;1.98;1.15;;;;;;;;;;5034645;28;20303;-46
2023/08/09 11:29:27;;;;;;;1.63;0.80;;;;;;;;;;5035031;28;20713;-47
2023/08/09 11:31:57;;;;;;;5.28;0.90;;;;;;;;;;5035081;28;20304;-46
2023/08/09 11:34:26;;;;;;;1.10;0.73;;;;;;;;;;5033747;28;20240;-45
2023/08/09 11:36:54;;;;;;;1.30;0.90;;;;;;;;;;5035294;28;20235;-46
2023/08/09 11:39:24;;;;;;;4.82;0.95;;;;;;;;;;5035042;28;20228;-46
2023/08/09 11:41:53;;;;;;;0.95;0.65;;;;;;;;;;5034782;28;20240;-46
2023/08/09 11:44:21;;;;;;;1.85;0.90;;;;;;;;;;5035325;28;20220;-47
2023/08/09 11:46:50;;;;;;;1.08;0.80;;;;;;;;;;5035414;28;20248;-45
2023/08/09 11:49:17;;;;;;;1.95;1.00;;;;;;;;;;5033445;28;20228;-47
2023/08/09 11:51:44;;;;;;;1.20;0.75;;;;;;;;;;5034779;28;20212;-47
2023/08/09 11:54:11;;;;;;;2.53;0.98;;;;;;;;;;5033793;28;20287;-46
2023/08/09 11:56:39;;;;;;;1.45;0.98;;;;;;;;;;5033797;28;20217;-46
2023/08/09 11:59:07;;;;;;;0.80;0.70;;;;;;;;;;5023214;28;20610;-46
2023/08/09 12:01:39;;;;;;;3.90;0.85;;;;;;;;;;5034682;28;20286;-46
2023/08/09 12:04:09;;;;;;;1.40;1.00;;;;;;;;;;5034237;28;20225;-44
2023/08/09 12:06:41;;;;;;;1.90;0.80;;;;;;;;;;5035304;28;20244;-43
2023/08/09 12:09:30;;;;;;;1.52;0.75;;;;;;;;;;5034071;28;20220;-44
2023/08/09 12:12:18;;;;;;;2.60;1.08;;;;;;;;;;5032898;28;20267;-44
2023/08/09 12:14:48;;;;;;;3.90;0.90;;;;;;;;;;5033910;28;20220;-43
2023/08/09 12:17:19;;;;;;;2.08;0.80;;;;;;;;;;5035185;28;20237;-44
2023/08/09 12:19:51;;;;;;;1.10;0.80;;;;;;;;;;5034337;28;20224;-44
2023/08/09 12:22:19;;;;;;;2.88;1.10;;;;;;;;;;5033117;28;20282;-44
2023/08/09 12:24:46;;;;;;;1.50;0.82;;;;;;;;;;5033927;28;20235;-45
2023/08/09 12:27:14;;;;;;;2.03;0.95;;;;;;;;;;5031450;28;20310;-43
2023/08/09 12:29:42;;;;;;;3.85;1.00;;;;;;;;;;5034312;28;20221;-45
2023/08/09 12:32:09;;;;;;;3.50;1.38;;;;;;;;;;5034843;28;20225;-44
2023/08/09 12:34:37;;;;;;;4.50;1.55;;;;;;;;;;5034456;28;20240;-44
2023/08/09 12:37:04;;;;;;;2.50;1.10;;;;;;;;;;5033524;28;20583;-44
2023/08/09 12:39:32;;;;;;;3.78;1.45;;;;;;;;;;5034353;28;20229;-44
2023/08/09 12:41:59;;;;;;;1.05;0.75;;;;;;;;;;5026564;28;20236;-44
2023/08/09 12:44:27;;;;;;;1.38;0.90;;;;;;;;;;5031880;28;20609;-45
2023/08/09 12:46:55;;;;;;;1.75;0.82;;;;;;;;;;5034186;28;20236;-46
2023/08/09 12:49:22;;;;;;;1.35;0.75;;;;;;;;;;5033812;28;20786;-46
2023/08/09 12:51:49;;;;;;;4.20;0.95;;;;;;;;;;5034126;28;20248;-48
2023/08/09 12:54:17;;;;;;;2.85;1.02;;;;;;;;;;5033745;28;20224;-46
2023/08/09 12:56:44;;;;;;;1.92;0.95;;;;;;;;;;5033391;28;20221;-50
2023/08/09 12:59:11;;;;;;;2.53;1.10;;;;;;;;;;5033749;28;20233;-49
2023/08/09 13:01:39;;;;;;;2.10;0.98;;;;;;;;;;5032676;28;20256;-46
2023/08/09 13:04:06;;;;;;;1.48;1.10;;;;;;;;;;5033980;28;20247;-47
2023/08/09 13:06:33;;;;;;;1.85;1.00;;;;;;;;;;5026480;28;20295;-48
2023/08/09 13:09:01;;;;;;;2.10;0.90;;;;;;;;;;5032826;28;20262;-46
2023/08/09 13:11:28;;;;;;;1.75;0.82;;;;;;;;;;5032385;28;20315;-47
2023/08/09 13:13:56;;;;;;;1.05;0.70;;;;;;;;;;5033253;28;20247;-46
2023/08/09 13:16:23;;;;;;;1.38;0.80;;;;;;;;;;5033677;28;20232;-47
2023/08/09 13:18:51;;;;;;;3.38;0.88;;;;;;;;;;5033060;28;20225;-46
2023/08/09 13:21:18;;;;;;;1.02;0.80;;;;;;;;;;5033232;28;20311;-46
2023/08/09 13:23:45;;;;;;;2.53;1.00;;;;;;;;;;5033101;28;20220;-46
2023/08/09 13:26:12;;;;;;;2.00;0.80;;;;;;;;;;5033195;28;20232;-46
2023/08/09 13:28:41;;;;;;;2.13;0.93;;;;;;;;;;5033082;28;20295;-48
2023/08/09 13:31:08;;;;;;;2.65;1.00;;;;;;;;;;5033175;28;20627;-47
2023/08/09 13:33:37;;;;;;;1.42;0.60;;;;;;;;;;5031406;28;20213;-46
2023/08/09 13:36:04;;;;;;;1.48;0.82;;;;;;;;;;5033398;28;20235;-46
2023/08/09 13:38:33;;;;;;;1.13;0.70;;;;;;;;;;5033262;28;20233;-46
2023/08/09 13:41:01;;;;;;;1.45;0.60;;;;;;;;;;5032834;28;20224;-46
2023/08/09 13:43:28;;;;;;;3.50;0.80;;;;;;;;;;5032431;28;20236;-45
2023/08/09 13:45:58;;;;;;;6.68;1.13;;;;;;;;;;5033221;28;20225;-47
2023/08/09 13:48:25;;;;;;;3.58;1.17;;;;;;;;;;5032342;28;20228;-46
2023/08/09 13:50:52;;;;;;;6.22;0.98;;;;;;;;;;5032679;28;20259;-46
2023/08/09 13:53:19;;;;;;;2.40;0.88;;;;;;;;;;5031642;28;20251;-45
2023/08/09 13:55:46;;;;;;;1.77;0.82;;;;;;;;;;5030600;28;20235;-46
2023/08/09 13:58:14;;;;;;;0.88;0.65;;;;;;;;;;5032661;28;20236;-47
2023/08/09 14:00:42;;;;;;;1.25;0.80;;;;;;;;;;5032045;28;20224;-47
2023/08/09 14:03:09;;;;;;;1.10;0.75;;;;;;;;;;5032298;28;20607;-47
2023/08/09 14:05:37;;;;;;;2.85;1.00;;;;;;;;;;5031100;28;20290;-45
2023/08/09 14:08:05;;;;;;;3.38;0.90;;;;;;;;;;5031310;28;20252;-44
2023/08/09 14:10:32;;;;;;;2.05;1.27;;;;;;;;;;5031892;28;20220;-48
2023/08/09 14:13:00;;;;;;;5.97;0.98;;;;;;;;;;5032318;28;20290;-44
2023/08/09 14:15:28;;;;;;;2.47;0.70;;;;;;;;;;5032507;28;20235;-44
2023/08/09 14:17:55;;;;;;;0.88;0.65;;;;;;;;;;5032699;28;20716;-46
2023/08/09 14:20:22;;;;;;;2.75;1.00;;;;;;;;;;5033025;28;20267;-44
2023/08/09 14:22:51;;;;;;;1.75;0.90;;;;;;;;;;5032786;28;20630;-44
2023/08/09 14:25:22;;;;;;;3.47;0.63;;;;;;;;;;5031632;28;20286;-45
2023/08/09 14:27:51;;;;;;;1.33;0.82;;;;;;;;;;5032956;28;20228;-44
2023/08/09 14:30:19;;;;;;;1.85;0.85;;;;;;;;;;5030560;28;20570;-44
2023/08/09 14:32:46;;;;;;;1.75;1.00;;;;;;;;;;5033000;28;20224;-44
2023/08/09 14:35:14;;;;;;;1.60;1.05;;;;;;;;;;5032526;28;20319;-45
2023/08/09 14:37:42;;;;;;;2.33;1.20;;;;;;;;;;5032767;28;20251;-45
2023/08/09 14:40:09;;;;;;;2.33;0.95;;;;;;;;;;5032308;28;20578;-45
2023/08/09 14:42:39;;;;;;;2.60;1.05;;;;;;;;;;5032831;28;20298;-44
2023/08/09 14:45:08;;;;;;;1.55;0.80;;;;;;;;;;5032734;28;20267;-44
2023/08/09 14:47:35;;;;;;;1.48;0.90;;;;;;;;;;5032221;28;20336;-44
2023/08/09 14:50:03;;;;;;;1.50;0.70;;;;;;;;;;5026215;28;20697;-45
2023/08/09 14:52:30;;;;;;;1.02;0.82;;;;;;;;;;5031966;28;20236;-45